Ole-arvid Nergaard — LLAY — position and weather

sailwx.info

Track history (hours):
 
Tides and Currents Weather Stations Pressure Air Temp Water Temp Dewpoint Dewpoint Depression Visibility Wind Speed Wind Dir Waves Ship Positions

Ole-arvid Nergaard

Last reported at 2014-Sep-12 13:30 UTC. Time now 2014-Sep-17 23:33 UTC.
Position N 69°46' E 019°10'.

Length 55 m; draft 7.2 m.

Type: Fishing. MMSI: 259656000.

Date/timePositionNaut miles runAvg speedWind from/ knotsBaromVisibWave heightAir tempDewpointWater temp
2014-Sep-12 13:30N 69°46' E 019°10'7 7.5
2014-Sep-12 12:33N 69°40' E 018°59'0 0.0
2014-Sep-12 11:33N 69°40' E 018°59'0 0.0
2014-Sep-12 10:33N 69°40' E 018°59'0 0.0
2014-Sep-12 09:33N 69°40' E 018°59'0 0.0
2014-Sep-12 08:33N 69°40' E 018°59'0 0.0
2014-Sep-12 07:33N 69°40' E 018°59'2 2.4
2014-Sep-12 06:33N 69°42' E 019°04'0 0.0
2014-Sep-12 05:33N 69°42' E 019°04'0 0.0
2014-Sep-12 04:33N 69°42' E 019°05'0 0.0
2014-Sep-12 03:33N 69°42' E 019°04'0 0.1
2014-Sep-12 02:33N 69°42' E 019°04'1 1.5
2014-Sep-12 01:33N 69°41' E 019°01'9 9.0
2014-Sep-12 00:33N 69°34' E 018°46'  
Track history (hours):
 
Tides and Currents Weather Stations Pressure Air Temp Water Temp Dewpoint Dewpoint Depression Visibility Wind Speed Wind Dir Waves Ship Positions

Ole-arvid Nergaard

Last reported at 2014-Sep-12 13:30 UTC. Time now 2014-Sep-17 23:33 UTC.
Position N 69°46' E 019°10'.

Length 55 m; draft 7.2 m.

Type: Fishing. MMSI: 259656000.

Date/timePositionNaut miles runAvg speedWind from/ knotsBaromVisibWave heightAir tempDewpointWater temp
2014-Sep-12 13:30N 69°46' E 019°10'7 7.5
2014-Sep-12 12:33N 69°40' E 018°59'0 0.0
2014-Sep-12 11:33N 69°40' E 018°59'0 0.0
2014-Sep-12 10:33N 69°40' E 018°59'0 0.0
2014-Sep-12 09:33N 69°40' E 018°59'0 0.0
2014-Sep-12 08:33N 69°40' E 018°59'0 0.0
2014-Sep-12 07:33N 69°40' E 018°59'2 2.4
2014-Sep-12 06:33N 69°42' E 019°04'0 0.0
2014-Sep-12 05:33N 69°42' E 019°04'0 0.0
2014-Sep-12 04:33N 69°42' E 019°05'0 0.0
2014-Sep-12 03:33N 69°42' E 019°04'0 0.1
2014-Sep-12 02:33N 69°42' E 019°04'1 1.5
2014-Sep-12 01:33N 69°41' E 019°01'9 9.0
2014-Sep-12 00:33N 69°34' E 018°46'  

Dump ship's entire track history